sensor_id;sensor_type;location;lat;lon;timestamp;P1;durP1;ratioP1;P2;durP2;ratioP2
12385;SDS011;6257;57.634;18.310;2023-07-09T00:01:12;7.23;;;3.87;;
12385;SDS011;6257;57.634;18.310;2023-07-09T00:03:42;5.77;;;3.90;;
12385;SDS011;6257;57.634;18.310;2023-07-09T00:06:09;5.73;;;4.17;;
12385;SDS011;6257;57.634;18.310;2023-07-09T00:08:39;4.10;;;3.67;;
12385;SDS011;6257;57.634;18.310;2023-07-09T00:11:13;6.00;;;3.90;;
12385;SDS011;6257;57.634;18.310;2023-07-09T00:13:40;4.40;;;4.00;;
12385;SDS011;6257;57.634;18.310;2023-07-09T00:16:10;5.97;;;4.07;;
12385;SDS011;6257;57.634;18.310;2023-07-09T00:18:41;6.47;;;3.87;;
12385;SDS011;6257;57.634;18.310;2023-07-09T00:21:09;5.80;;;4.03;;
12385;SDS011;6257;57.634;18.310;2023-07-09T00:23:36;4.27;;;3.70;;
12385;SDS011;6257;57.634;18.310;2023-07-09T00:26:07;5.10;;;4.13;;
12385;SDS011;6257;57.634;18.310;2023-07-09T00:28:37;4.93;;;3.80;;
12385;SDS011;6257;57.634;18.310;2023-07-09T00:31:04;5.20;;;3.80;;
12385;SDS011;6257;57.634;18.310;2023-07-09T00:33:31;5.67;;;3.93;;
12385;SDS011;6257;57.634;18.310;2023-07-09T00:35:58;4.30;;;3.63;;
12385;SDS011;6257;57.634;18.310;2023-07-09T00:38:26;4.83;;;3.80;;
12385;SDS011;6257;57.634;18.310;2023-07-09T00:41:00;5.80;;;3.50;;
12385;SDS011;6257;57.634;18.310;2023-07-09T00:43:29;4.27;;;3.73;;
12385;SDS011;6257;57.634;18.310;2023-07-09T00:49:07;5.40;;;4.30;;
12385;SDS011;6257;57.634;18.310;2023-07-09T00:51:43;6.50;;;4.00;;
12385;SDS011;6257;57.634;18.310;2023-07-09T00:54:13;5.53;;;3.80;;
12385;SDS011;6257;57.634;18.310;2023-07-09T00:56:47;4.10;;;3.70;;
12385;SDS011;6257;57.634;18.310;2023-07-09T00:59:20;4.20;;;3.80;;
12385;SDS011;6257;57.634;18.310;2023-07-09T01:01:50;3.97;;;3.40;;
12385;SDS011;6257;57.634;18.310;2023-07-09T01:04:20;5.70;;;3.60;;
12385;SDS011;6257;57.634;18.310;2023-07-09T01:06:50;5.57;;;3.60;;
12385;SDS011;6257;57.634;18.310;2023-07-09T01:09:19;5.13;;;3.80;;
12385;SDS011;6257;57.634;18.310;2023-07-09T01:11:48;5.73;;;3.70;;
12385;SDS011;6257;57.634;18.310;2023-07-09T01:14:15;3.87;;;3.40;;
12385;SDS011;6257;57.634;18.310;2023-07-09T01:16:48;4.40;;;3.43;;
12385;SDS011;6257;57.634;18.310;2023-07-09T01:19:24;7.70;;;3.90;;
12385;SDS011;6257;57.634;18.310;2023-07-09T01:21:55;4.47;;;3.70;;
12385;SDS011;6257;57.634;18.310;2023-07-09T01:27:14;4.13;;;3.33;;
12385;SDS011;6257;57.634;18.310;2023-07-09T01:29:42;3.73;;;3.17;;
12385;SDS011;6257;57.634;18.310;2023-07-09T01:32:13;3.83;;;3.37;;
12385;SDS011;6257;57.634;18.310;2023-07-09T01:34:40;4.00;;;3.60;;
12385;SDS011;6257;57.634;18.310;2023-07-09T01:37:09;4.97;;;3.30;;
12385;SDS011;6257;57.634;18.310;2023-07-09T01:39:37;6.20;;;3.30;;
12385;SDS011;6257;57.634;18.310;2023-07-09T01:42:06;4.37;;;3.23;;
12385;SDS011;6257;57.634;18.310;2023-07-09T01:44:34;5.27;;;3.40;;
12385;SDS011;6257;57.634;18.310;2023-07-09T01:47:02;5.00;;;3.23;;
12385;SDS011;6257;57.634;18.310;2023-07-09T01:49:29;4.03;;;3.23;;
12385;SDS011;6257;57.634;18.310;2023-07-09T01:51:58;5.37;;;3.33;;
12385;SDS011;6257;57.634;18.310;2023-07-09T01:54:30;3.97;;;3.37;;
12385;SDS011;6257;57.634;18.310;2023-07-09T01:57:12;3.93;;;3.20;;
12385;SDS011;6257;57.634;18.310;2023-07-09T01:59:40;4.07;;;3.27;;
12385;SDS011;6257;57.634;18.310;2023-07-09T02:02:07;4.47;;;3.27;;
12385;SDS011;6257;57.634;18.310;2023-07-09T02:04:34;4.37;;;3.70;;
12385;SDS011;6257;57.634;18.310;2023-07-09T02:07:02;3.97;;;3.57;;
12385;SDS011;6257;57.634;18.310;2023-07-09T02:09:31;4.10;;;3.20;;
12385;SDS011;6257;57.634;18.310;2023-07-09T02:11:58;5.10;;;3.93;;
12385;SDS011;6257;57.634;18.310;2023-07-09T02:14:27;4.03;;;3.17;;
12385;SDS011;6257;57.634;18.310;2023-07-09T02:16:54;4.67;;;3.07;;
12385;SDS011;6257;57.634;18.310;2023-07-09T02:19:21;4.00;;;3.13;;
12385;SDS011;6257;57.634;18.310;2023-07-09T02:21:48;3.80;;;3.20;;
12385;SDS011;6257;57.634;18.310;2023-07-09T02:24:15;6.73;;;3.83;;
12385;SDS011;6257;57.634;18.310;2023-07-09T02:26:44;4.43;;;3.20;;
12385;SDS011;6257;57.634;18.310;2023-07-09T02:29:11;4.73;;;3.53;;
12385;SDS011;6257;57.634;18.310;2023-07-09T02:31:38;4.23;;;3.30;;
12385;SDS011;6257;57.634;18.310;2023-07-09T02:34:05;4.60;;;3.43;;
12385;SDS011;6257;57.634;18.310;2023-07-09T02:36:32;3.20;;;2.90;;
12385;SDS011;6257;57.634;18.310;2023-07-09T02:39:00;4.33;;;3.07;;
12385;SDS011;6257;57.634;18.310;2023-07-09T02:41:27;4.27;;;3.40;;
12385;SDS011;6257;57.634;18.310;2023-07-09T02:43:55;4.60;;;3.67;;
12385;SDS011;6257;57.634;18.310;2023-07-09T02:46:22;3.50;;;3.20;;
12385;SDS011;6257;57.634;18.310;2023-07-09T02:48:49;3.40;;;3.10;;
12385;SDS011;6257;57.634;18.310;2023-07-09T02:51:17;4.23;;;3.30;;
12385;SDS011;6257;57.634;18.310;2023-07-09T02:53:44;4.00;;;3.53;;
12385;SDS011;6257;57.634;18.310;2023-07-09T02:56:11;3.77;;;3.20;;
12385;SDS011;6257;57.634;18.310;2023-07-09T02:58:38;3.37;;;2.93;;
12385;SDS011;6257;57.634;18.310;2023-07-09T03:01:07;3.43;;;3.13;;
12385;SDS011;6257;57.634;18.310;2023-07-09T03:03:34;4.50;;;3.27;;
12385;SDS011;6257;57.634;18.310;2023-07-09T03:06:01;4.20;;;3.20;;
12385;SDS011;6257;57.634;18.310;2023-07-09T03:08:29;5.50;;;3.10;;
12385;SDS011;6257;57.634;18.310;2023-07-09T03:10:56;4.10;;;2.57;;
12385;SDS011;6257;57.634;18.310;2023-07-09T03:13:23;3.40;;;3.10;;
12385;SDS011;6257;57.634;18.310;2023-07-09T03:15:54;5.37;;;3.07;;
12385;SDS011;6257;57.634;18.310;2023-07-09T03:18:23;5.00;;;3.53;;
12385;SDS011;6257;57.634;18.310;2023-07-09T03:20:50;2.93;;;2.73;;
12385;SDS011;6257;57.634;18.310;2023-07-09T03:23:18;4.33;;;3.33;;
12385;SDS011;6257;57.634;18.310;2023-07-09T03:25:45;4.77;;;3.03;;
12385;SDS011;6257;57.634;18.310;2023-07-09T03:28:12;4.03;;;3.20;;
12385;SDS011;6257;57.634;18.310;2023-07-09T03:30:41;4.90;;;3.00;;
12385;SDS011;6257;57.634;18.310;2023-07-09T03:33:08;3.40;;;3.10;;
12385;SDS011;6257;57.634;18.310;2023-07-09T03:35:37;3.70;;;3.10;;
12385;SDS011;6257;57.634;18.310;2023-07-09T03:38:04;4.43;;;2.90;;
12385;SDS011;6257;57.634;18.310;2023-07-09T03:40:31;3.77;;;2.83;;
12385;SDS011;6257;57.634;18.310;2023-07-09T03:42:59;4.07;;;3.00;;
12385;SDS011;6257;57.634;18.310;2023-07-09T03:45:27;2.90;;;2.57;;
12385;SDS011;6257;57.634;18.310;2023-07-09T03:47:54;3.10;;;2.60;;
12385;SDS011;6257;57.634;18.310;2023-07-09T03:50:21;2.97;;;2.67;;
12385;SDS011;6257;57.634;18.310;2023-07-09T03:52:49;3.57;;;2.73;;
12385;SDS011;6257;57.634;18.310;2023-07-09T03:55:17;3.97;;;2.50;;
12385;SDS011;6257;57.634;18.310;2023-07-09T03:57:44;3.03;;;2.60;;
12385;SDS011;6257;57.634;18.310;2023-07-09T04:00:11;4.60;;;2.50;;
12385;SDS011;6257;57.634;18.310;2023-07-09T04:02:39;2.50;;;2.30;;
12385;SDS011;6257;57.634;18.310;2023-07-09T04:05:08;3.23;;;2.40;;
12385;SDS011;6257;57.634;18.310;2023-07-09T04:07:36;3.80;;;2.40;;
12385;SDS011;6257;57.634;18.310;2023-07-09T04:10:06;3.63;;;2.30;;
12385;SDS011;6257;57.634;18.310;2023-07-09T04:12:33;2.60;;;2.27;;
12385;SDS011;6257;57.634;18.310;2023-07-09T04:15:02;2.97;;;2.30;;
12385;SDS011;6257;57.634;18.310;2023-07-09T04:17:30;2.30;;;2.03;;
12385;SDS011;6257;57.634;18.310;2023-07-09T04:19:57;2.13;;;1.93;;
12385;SDS011;6257;57.634;18.310;2023-07-09T04:22:25;3.07;;;2.30;;
12385;SDS011;6257;57.634;18.310;2023-07-09T04:24:52;2.00;;;1.70;;
12385;SDS011;6257;57.634;18.310;2023-07-09T04:27:20;3.13;;;2.00;;
12385;SDS011;6257;57.634;18.310;2023-07-09T04:29:52;4.07;;;2.13;;
12385;SDS011;6257;57.634;18.310;2023-07-09T04:32:20;1.83;;;1.73;;
12385;SDS011;6257;57.634;18.310;2023-07-09T04:34:48;3.37;;;1.90;;
12385;SDS011;6257;57.634;18.310;2023-07-09T04:37:15;2.93;;;1.93;;
12385;SDS011;6257;57.634;18.310;2023-07-09T04:39:43;2.87;;;2.03;;
12385;SDS011;6257;57.634;18.310;2023-07-09T04:42:11;2.40;;;1.73;;
12385;SDS011;6257;57.634;18.310;2023-07-09T04:44:41;4.03;;;1.93;;
12385;SDS011;6257;57.634;18.310;2023-07-09T04:47:08;3.73;;;1.80;;
12385;SDS011;6257;57.634;18.310;2023-07-09T04:49:37;2.67;;;1.93;;
12385;SDS011;6257;57.634;18.310;2023-07-09T04:52:04;2.40;;;1.87;;
12385;SDS011;6257;57.634;18.310;2023-07-09T04:54:32;2.17;;;1.97;;
12385;SDS011;6257;57.634;18.310;2023-07-09T04:56:59;2.10;;;1.90;;
12385;SDS011;6257;57.634;18.310;2023-07-09T04:59:27;1.90;;;1.70;;
12385;SDS011;6257;57.634;18.310;2023-07-09T05:01:56;3.40;;;1.77;;
12385;SDS011;6257;57.634;18.310;2023-07-09T05:04:23;2.73;;;1.93;;
12385;SDS011;6257;57.634;18.310;2023-07-09T05:06:50;2.77;;;1.87;;
12385;SDS011;6257;57.634;18.310;2023-07-09T05:09:17;4.20;;;2.10;;
12385;SDS011;6257;57.634;18.310;2023-07-09T05:11:44;2.00;;;1.77;;
12385;SDS011;6257;57.634;18.310;2023-07-09T05:14:12;2.53;;;1.80;;
12385;SDS011;6257;57.634;18.310;2023-07-09T05:16:39;2.33;;;1.90;;
12385;SDS011;6257;57.634;18.310;2023-07-09T05:19:08;2.00;;;1.70;;
12385;SDS011;6257;57.634;18.310;2023-07-09T05:21:35;4.70;;;2.00;;
12385;SDS011;6257;57.634;18.310;2023-07-09T05:24:02;2.20;;;1.77;;
12385;SDS011;6257;57.634;18.310;2023-07-09T05:26:30;3.53;;;1.83;;
12385;SDS011;6257;57.634;18.310;2023-07-09T05:28:57;2.23;;;1.77;;
12385;SDS011;6257;57.634;18.310;2023-07-09T05:31:24;2.00;;;1.80;;
12385;SDS011;6257;57.634;18.310;2023-07-09T05:33:52;2.40;;;1.97;;
12385;SDS011;6257;57.634;18.310;2023-07-09T05:36:21;2.87;;;1.90;;
12385;SDS011;6257;57.634;18.310;2023-07-09T05:38:48;3.83;;;2.00;;
12385;SDS011;6257;57.634;18.310;2023-07-09T05:41:16;2.43;;;2.20;;
12385;SDS011;6257;57.634;18.310;2023-07-09T05:43:43;2.00;;;1.80;;
12385;SDS011;6257;57.634;18.310;2023-07-09T05:46:14;2.33;;;1.73;;
12385;SDS011;6257;57.634;18.310;2023-07-09T05:48:41;2.00;;;1.90;;
12385;SDS011;6257;57.634;18.310;2023-07-09T05:51:08;2.87;;;2.20;;
12385;SDS011;6257;57.634;18.310;2023-07-09T05:53:37;2.23;;;1.90;;
12385;SDS011;6257;57.634;18.310;2023-07-09T05:56:04;2.20;;;1.70;;
12385;SDS011;6257;57.634;18.310;2023-07-09T05:58:32;2.93;;;1.90;;
12385;SDS011;6257;57.634;18.310;2023-07-09T06:00:59;2.20;;;2.00;;
12385;SDS011;6257;57.634;18.310;2023-07-09T06:03:26;4.03;;;1.90;;
12385;SDS011;6257;57.634;18.310;2023-07-09T06:05:55;3.97;;;2.20;;
12385;SDS011;6257;57.634;18.310;2023-07-09T06:08:23;3.80;;;2.10;;
12385;SDS011;6257;57.634;18.310;2023-07-09T06:10:56;3.20;;;2.00;;
12385;SDS011;6257;57.634;18.310;2023-07-09T06:13:25;2.53;;;1.70;;
12385;SDS011;6257;57.634;18.310;2023-07-09T06:15:53;2.67;;;1.90;;
12385;SDS011;6257;57.634;18.310;2023-07-09T06:18:21;2.53;;;1.80;;
12385;SDS011;6257;57.634;18.310;2023-07-09T06:20:50;3.20;;;2.10;;
12385;SDS011;6257;57.634;18.310;2023-07-09T06:23:18;3.43;;;1.80;;
12385;SDS011;6257;57.634;18.310;2023-07-09T06:25:46;2.10;;;1.90;;
12385;SDS011;6257;57.634;18.310;2023-07-09T06:28:16;2.43;;;1.87;;
12385;SDS011;6257;57.634;18.310;2023-07-09T06:30:44;2.30;;;2.10;;
12385;SDS011;6257;57.634;18.310;2023-07-09T06:33:12;3.03;;;2.00;;
12385;SDS011;6257;57.634;18.310;2023-07-09T06:35:45;2.67;;;1.97;;
12385;SDS011;6257;57.634;18.310;2023-07-09T06:38:14;2.43;;;2.00;;
12385;SDS011;6257;57.634;18.310;2023-07-09T06:40:41;3.23;;;2.20;;
12385;SDS011;6257;57.634;18.310;2023-07-09T06:43:08;2.03;;;1.80;;
12385;SDS011;6257;57.634;18.310;2023-07-09T06:45:37;2.97;;;2.00;;
12385;SDS011;6257;57.634;18.310;2023-07-09T06:48:05;2.37;;;2.10;;
12385;SDS011;6257;57.634;18.310;2023-07-09T06:50:32;2.37;;;1.90;;
12385;SDS011;6257;57.634;18.310;2023-07-09T06:53:00;3.50;;;2.13;;
12385;SDS011;6257;57.634;18.310;2023-07-09T06:55:27;4.27;;;2.10;;
12385;SDS011;6257;57.634;18.310;2023-07-09T06:57:55;2.07;;;1.80;;
12385;SDS011;6257;57.634;18.310;2023-07-09T07:00:22;4.27;;;1.93;;
12385;SDS011;6257;57.634;18.310;2023-07-09T07:02:51;2.00;;;1.73;;
12385;SDS011;6257;57.634;18.310;2023-07-09T07:05:18;3.13;;;1.90;;
12385;SDS011;6257;57.634;18.310;2023-07-09T07:07:46;3.27;;;1.80;;
12385;SDS011;6257;57.634;18.310;2023-07-09T07:10:13;2.83;;;1.70;;
12385;SDS011;6257;57.634;18.310;2023-07-09T07:12:41;2.83;;;1.60;;
12385;SDS011;6257;57.634;18.310;2023-07-09T07:15:10;2.47;;;1.60;;
12385;SDS011;6257;57.634;18.310;2023-07-09T07:17:38;1.60;;;1.50;;
12385;SDS011;6257;57.634;18.310;2023-07-09T07:20:08;4.83;;;1.90;;
12385;SDS011;6257;57.634;18.310;2023-07-09T07:22:36;3.60;;;1.70;;
12385;SDS011;6257;57.634;18.310;2023-07-09T07:25:04;3.10;;;1.83;;
12385;SDS011;6257;57.634;18.310;2023-07-09T07:27:32;2.87;;;1.80;;
12385;SDS011;6257;57.634;18.310;2023-07-09T07:30:00;2.20;;;1.63;;
12385;SDS011;6257;57.634;18.310;2023-07-09T07:32:27;3.03;;;1.60;;
12385;SDS011;6257;57.634;18.310;2023-07-09T07:34:54;3.20;;;1.70;;
12385;SDS011;6257;57.634;18.310;2023-07-09T07:37:22;2.27;;;1.63;;
12385;SDS011;6257;57.634;18.310;2023-07-09T07:39:49;2.50;;;1.67;;
12385;SDS011;6257;57.634;18.310;2023-07-09T07:42:16;2.43;;;1.70;;
12385;SDS011;6257;57.634;18.310;2023-07-09T07:44:44;2.20;;;1.57;;
12385;SDS011;6257;57.634;18.310;2023-07-09T07:47:11;1.70;;;1.43;;
12385;SDS011;6257;57.634;18.310;2023-07-09T07:49:38;1.50;;;1.40;;
12385;SDS011;6257;57.634;18.310;2023-07-09T07:52:06;2.90;;;1.50;;
12385;SDS011;6257;57.634;18.310;2023-07-09T07:54:36;3.13;;;1.50;;
12385;SDS011;6257;57.634;18.310;2023-07-09T07:57:04;3.37;;;1.70;;
12385;SDS011;6257;57.634;18.310;2023-07-09T07:59:34;2.13;;;1.57;;
12385;SDS011;6257;57.634;18.310;2023-07-09T08:02:01;1.93;;;1.43;;
12385;SDS011;6257;57.634;18.310;2023-07-09T08:04:29;1.90;;;1.60;;
12385;SDS011;6257;57.634;18.310;2023-07-09T08:06:56;1.77;;;1.40;;
12385;SDS011;6257;57.634;18.310;2023-07-09T08:09:23;2.07;;;1.87;;
12385;SDS011;6257;57.634;18.310;2023-07-09T08:11:53;2.17;;;1.63;;
12385;SDS011;6257;57.634;18.310;2023-07-09T08:14:20;2.20;;;1.63;;
12385;SDS011;6257;57.634;18.310;2023-07-09T08:16:47;2.27;;;1.53;;
12385;SDS011;6257;57.634;18.310;2023-07-09T08:19:18;1.87;;;1.63;;
12385;SDS011;6257;57.634;18.310;2023-07-09T08:21:45;1.40;;;1.30;;
12385;SDS011;6257;57.634;18.310;2023-07-09T08:24:13;2.83;;;1.70;;
12385;SDS011;6257;57.634;18.310;2023-07-09T08:26:40;2.60;;;1.63;;
12385;SDS011;6257;57.634;18.310;2023-07-09T08:29:09;4.03;;;1.97;;
12385;SDS011;6257;57.634;18.310;2023-07-09T08:31:36;2.57;;;1.70;;
12385;SDS011;6257;57.634;18.310;2023-07-09T08:34:05;1.80;;;1.40;;
12385;SDS011;6257;57.634;18.310;2023-07-09T08:36:32;3.00;;;1.70;;
12385;SDS011;6257;57.634;18.310;2023-07-09T08:39:00;3.50;;;1.90;;
12385;SDS011;6257;57.634;18.310;2023-07-09T08:41:35;4.10;;;1.70;;
12385;SDS011;6257;57.634;18.310;2023-07-09T08:44:22;1.70;;;1.60;;
12385;SDS011;6257;57.634;18.310;2023-07-09T08:47:02;2.60;;;1.63;;
12385;SDS011;6257;57.634;18.310;2023-07-09T08:49:38;1.47;;;1.30;;
12385;SDS011;6257;57.634;18.310;2023-07-09T08:52:09;2.70;;;1.63;;
12385;SDS011;6257;57.634;18.310;2023-07-09T08:54:41;1.87;;;1.50;;
12385;SDS011;6257;57.634;18.310;2023-07-09T08:57:15;1.87;;;1.63;;
12385;SDS011;6257;57.634;18.310;2023-07-09T08:59:48;3.43;;;1.73;;
12385;SDS011;6257;57.634;18.310;2023-07-09T09:02:25;2.13;;;1.70;;
12385;SDS011;6257;57.634;18.310;2023-07-09T09:04:56;1.57;;;1.47;;
12385;SDS011;6257;57.634;18.310;2023-07-09T09:07:26;2.30;;;1.50;;
12385;SDS011;6257;57.634;18.310;2023-07-09T09:10:03;1.90;;;1.70;;
12385;SDS011;6257;57.634;18.310;2023-07-09T09:12:31;2.17;;;1.43;;
12385;SDS011;6257;57.634;18.310;2023-07-09T09:15:09;2.20;;;1.70;;
12385;SDS011;6257;57.634;18.310;2023-07-09T09:17:40;2.73;;;1.83;;
12385;SDS011;6257;57.634;18.310;2023-07-09T09:20:08;2.70;;;1.77;;
12385;SDS011;6257;57.634;18.310;2023-07-09T09:22:42;4.53;;;1.77;;
12385;SDS011;6257;57.634;18.310;2023-07-09T09:25:17;1.50;;;1.40;;
12385;SDS011;6257;57.634;18.310;2023-07-09T09:27:49;3.00;;;1.80;;
12385;SDS011;6257;57.634;18.310;2023-07-09T09:30:19;1.90;;;1.70;;
12385;SDS011;6257;57.634;18.310;2023-07-09T09:32:48;2.33;;;1.90;;
12385;SDS011;6257;57.634;18.310;2023-07-09T09:35:19;2.57;;;2.03;;
12385;SDS011;6257;57.634;18.310;2023-07-09T09:37:52;2.37;;;2.17;;
12385;SDS011;6257;57.634;18.310;2023-07-09T09:40:21;4.20;;;2.00;;
12385;SDS011;6257;57.634;18.310;2023-07-09T09:42:50;3.03;;;2.00;;
12385;SDS011;6257;57.634;18.310;2023-07-09T09:45:24;1.90;;;1.70;;
12385;SDS011;6257;57.634;18.310;2023-07-09T09:47:57;2.43;;;1.97;;
12385;SDS011;6257;57.634;18.310;2023-07-09T09:50:27;2.30;;;1.67;;
12385;SDS011;6257;57.634;18.310;2023-07-09T09:52:59;4.80;;;2.20;;
12385;SDS011;6257;57.634;18.310;2023-07-09T09:55:28;3.40;;;2.00;;
12385;SDS011;6257;57.634;18.310;2023-07-09T09:57:57;2.13;;;1.93;;
12385;SDS011;6257;57.634;18.310;2023-07-09T10:00:27;1.93;;;1.73;;
12385;SDS011;6257;57.634;18.310;2023-07-09T10:02:58;2.23;;;1.90;;
12385;SDS011;6257;57.634;18.310;2023-07-09T10:05:29;2.07;;;1.80;;
12385;SDS011;6257;57.634;18.310;2023-07-09T10:07:59;2.13;;;1.80;;
12385;SDS011;6257;57.634;18.310;2023-07-09T10:10:33;2.27;;;2.00;;
12385;SDS011;6257;57.634;18.310;2023-07-09T10:13:02;2.03;;;1.83;;
12385;SDS011;6257;57.634;18.310;2023-07-09T10:15:40;4.10;;;1.93;;
12385;SDS011;6257;57.634;18.310;2023-07-09T10:18:27;3.53;;;1.83;;
12385;SDS011;6257;57.634;18.310;2023-07-09T10:21:08;2.77;;;1.80;;
12385;SDS011;6257;57.634;18.310;2023-07-09T10:23:43;2.30;;;2.10;;
12385;SDS011;6257;57.634;18.310;2023-07-09T10:26:15;3.13;;;2.03;;
12385;SDS011;6257;57.634;18.310;2023-07-09T10:32:09;2.10;;;1.80;;
12385;SDS011;6257;57.634;18.310;2023-07-09T10:34:48;3.13;;;2.00;;
12385;SDS011;6257;57.634;18.310;2023-07-09T10:37:24;3.33;;;1.90;;
12385;SDS011;6257;57.634;18.310;2023-07-09T10:40:08;3.70;;;2.50;;
12385;SDS011;6257;57.634;18.310;2023-07-09T10:42:40;1.57;;;1.43;;
12385;SDS011;6257;57.634;18.310;2023-07-09T10:45:12;3.33;;;2.47;;
12385;SDS011;6257;57.634;18.310;2023-07-09T10:47:44;2.97;;;2.73;;
12385;SDS011;6257;57.634;18.310;2023-07-09T10:50:15;3.17;;;2.87;;
12385;SDS011;6257;57.634;18.310;2023-07-09T10:52:50;3.93;;;3.30;;
12385;SDS011;6257;57.634;18.310;2023-07-09T10:55:21;3.00;;;2.70;;
12385;SDS011;6257;57.634;18.310;2023-07-09T10:57:57;3.90;;;3.30;;
12385;SDS011;6257;57.634;18.310;2023-07-09T11:00:30;3.40;;;3.10;;
12385;SDS011;6257;57.634;18.310;2023-07-09T11:03:04;3.10;;;2.80;;
12385;SDS011;6257;57.634;18.310;2023-07-09T11:05:39;3.23;;;2.93;;
12385;SDS011;6257;57.634;18.310;2023-07-09T11:08:07;3.87;;;3.10;;
12385;SDS011;6257;57.634;18.310;2023-07-09T11:10:39;3.03;;;2.70;;
12385;SDS011;6257;57.634;18.310;2023-07-09T11:13:13;3.33;;;2.73;;
12385;SDS011;6257;57.634;18.310;2023-07-09T11:15:46;3.53;;;3.13;;
12385;SDS011;6257;57.634;18.310;2023-07-09T11:18:19;3.00;;;2.80;;
12385;SDS011;6257;57.634;18.310;2023-07-09T11:20:54;6.17;;;3.17;;
12385;SDS011;6257;57.634;18.310;2023-07-09T11:23:37;4.00;;;3.03;;
12385;SDS011;6257;57.634;18.310;2023-07-09T11:26:11;4.53;;;3.07;;
12385;SDS011;6257;57.634;18.310;2023-07-09T11:28:40;6.13;;;3.20;;
12385;SDS011;6257;57.634;18.310;2023-07-09T11:31:16;4.73;;;3.27;;
12385;SDS011;6257;57.634;18.310;2023-07-09T11:33:49;3.57;;;3.27;;
12385;SDS011;6257;57.634;18.310;2023-07-09T11:36:26;5.03;;;3.67;;
12385;SDS011;6257;57.634;18.310;2023-07-09T11:38:54;3.70;;;3.40;;
12385;SDS011;6257;57.634;18.310;2023-07-09T11:41:25;4.30;;;3.90;;
12385;SDS011;6257;57.634;18.310;2023-07-09T11:44:02;4.30;;;3.90;;
12385;SDS011;6257;57.634;18.310;2023-07-09T11:46:31;4.03;;;3.53;;
12385;SDS011;6257;57.634;18.310;2023-07-09T11:49:02;3.80;;;3.30;;
12385;SDS011;6257;57.634;18.310;2023-07-09T11:51:34;3.80;;;3.03;;
12385;SDS011;6257;57.634;18.310;2023-07-09T11:54:07;3.43;;;3.13;;
12385;SDS011;6257;57.634;18.310;2023-07-09T11:56:38;3.87;;;3.10;;
12385;SDS011;6257;57.634;18.310;2023-07-09T11:59:06;3.00;;;2.70;;
12385;SDS011;6257;57.634;18.310;2023-07-09T12:01:38;6.13;;;2.83;;
12385;SDS011;6257;57.634;18.310;2023-07-09T12:04:13;3.20;;;2.90;;
12385;SDS011;6257;57.634;18.310;2023-07-09T12:06:42;4.33;;;3.07;;
12385;SDS011;6257;57.634;18.310;2023-07-09T12:09:12;3.03;;;2.80;;
12385;SDS011;6257;57.634;18.310;2023-07-09T12:11:43;3.40;;;2.87;;
12385;SDS011;6257;57.634;18.310;2023-07-09T12:14:13;3.67;;;2.90;;
12385;SDS011;6257;57.634;18.310;2023-07-09T12:16:42;4.07;;;2.70;;
12385;SDS011;6257;57.634;18.310;2023-07-09T12:19:14;2.77;;;2.57;;
12385;SDS011;6257;57.634;18.310;2023-07-09T12:21:42;4.90;;;3.07;;
12385;SDS011;6257;57.634;18.310;2023-07-09T12:24:17;3.03;;;2.70;;
12385;SDS011;6257;57.634;18.310;2023-07-09T12:26:49;2.70;;;2.50;;
12385;SDS011;6257;57.634;18.310;2023-07-09T12:29:17;3.93;;;3.00;;
12385;SDS011;6257;57.634;18.310;2023-07-09T12:31:45;2.93;;;2.70;;
12385;SDS011;6257;57.634;18.310;2023-07-09T12:34:13;3.40;;;2.80;;
12385;SDS011;6257;57.634;18.310;2023-07-09T12:36:43;5.73;;;3.10;;
12385;SDS011;6257;57.634;18.310;2023-07-09T12:39:12;3.23;;;2.50;;
12385;SDS011;6257;57.634;18.310;2023-07-09T12:41:44;7.27;;;2.80;;
12385;SDS011;6257;57.634;18.310;2023-07-09T12:44:15;2.67;;;2.47;;
12385;SDS011;6257;57.634;18.310;2023-07-09T12:46:44;3.93;;;3.10;;
12385;SDS011;6257;57.634;18.310;2023-07-09T12:49:21;3.17;;;2.77;;
12385;SDS011;6257;57.634;18.310;2023-07-09T12:51:51;3.50;;;2.63;;
12385;SDS011;6257;57.634;18.310;2023-07-09T12:54:20;3.10;;;2.67;;
12385;SDS011;6257;57.634;18.310;2023-07-09T12:56:50;2.57;;;2.30;;
12385;SDS011;6257;57.634;18.310;2023-07-09T12:59:19;3.57;;;2.77;;
12385;SDS011;6257;57.634;18.310;2023-07-09T13:01:49;3.20;;;2.37;;
12385;SDS011;6257;57.634;18.310;2023-07-09T13:04:17;3.30;;;2.67;;
12385;SDS011;6257;57.634;18.310;2023-07-09T13:06:46;2.60;;;2.33;;
12385;SDS011;6257;57.634;18.310;2023-07-09T13:09:19;3.90;;;2.67;;
12385;SDS011;6257;57.634;18.310;2023-07-09T13:11:47;3.70;;;2.50;;
12385;SDS011;6257;57.634;18.310;2023-07-09T13:14:19;4.00;;;2.50;;
12385;SDS011;6257;57.634;18.310;2023-07-09T13:16:47;2.43;;;2.13;;
12385;SDS011;6257;57.634;18.310;2023-07-09T13:19:15;2.43;;;2.23;;
12385;SDS011;6257;57.634;18.310;2023-07-09T13:21:43;4.80;;;2.27;;
12385;SDS011;6257;57.634;18.310;2023-07-09T13:24:13;2.57;;;2.37;;
12385;SDS011;6257;57.634;18.310;2023-07-09T13:26:43;2.53;;;2.30;;
12385;SDS011;6257;57.634;18.310;2023-07-09T13:29:13;2.23;;;2.03;;
12385;SDS011;6257;57.634;18.310;2023-07-09T13:31:41;2.70;;;2.10;;
12385;SDS011;6257;57.634;18.310;2023-07-09T13:34:12;3.50;;;2.30;;
12385;SDS011;6257;57.634;18.310;2023-07-09T13:36:46;2.10;;;1.90;;
12385;SDS011;6257;57.634;18.310;2023-07-09T13:39:15;2.13;;;1.87;;
12385;SDS011;6257;57.634;18.310;2023-07-09T13:41:42;2.20;;;1.83;;
12385;SDS011;6257;57.634;18.310;2023-07-09T13:44:11;2.77;;;2.00;;
12385;SDS011;6257;57.634;18.310;2023-07-09T13:46:40;2.07;;;1.87;;
12385;SDS011;6257;57.634;18.310;2023-07-09T13:49:11;2.73;;;1.90;;
12385;SDS011;6257;57.634;18.310;2023-07-09T13:51:40;2.00;;;1.70;;
12385;SDS011;6257;57.634;18.310;2023-07-09T13:54:13;1.90;;;1.70;;
12385;SDS011;6257;57.634;18.310;2023-07-09T13:56:43;2.07;;;1.70;;
12385;SDS011;6257;57.634;18.310;2023-07-09T13:59:14;2.40;;;1.97;;
12385;SDS011;6257;57.634;18.310;2023-07-09T14:01:43;2.93;;;1.93;;
12385;SDS011;6257;57.634;18.310;2023-07-09T14:04:11;2.17;;;1.80;;
12385;SDS011;6257;57.634;18.310;2023-07-09T14:06:40;3.83;;;1.70;;
12385;SDS011;6257;57.634;18.310;2023-07-09T14:09:08;1.70;;;1.60;;
12385;SDS011;6257;57.634;18.310;2023-07-09T14:11:37;1.63;;;1.53;;
12385;SDS011;6257;57.634;18.310;2023-07-09T14:14:11;1.70;;;1.60;;
12385;SDS011;6257;57.634;18.310;2023-07-09T14:16:46;1.93;;;1.73;;
12385;SDS011;6257;57.634;18.310;2023-07-09T14:19:14;1.70;;;1.60;;
12385;SDS011;6257;57.634;18.310;2023-07-09T14:21:42;2.10;;;1.90;;
12385;SDS011;6257;57.634;18.310;2023-07-09T14:24:17;2.60;;;1.63;;
12385;SDS011;6257;57.634;18.310;2023-07-09T14:26:48;1.87;;;1.50;;
12385;SDS011;6257;57.634;18.310;2023-07-09T14:29:15;2.67;;;1.60;;
12385;SDS011;6257;57.634;18.310;2023-07-09T14:31:44;1.77;;;1.50;;
12385;SDS011;6257;57.634;18.310;2023-07-09T14:34:18;1.93;;;1.47;;
12385;SDS011;6257;57.634;18.310;2023-07-09T14:36:47;1.67;;;1.40;;
12385;SDS011;6257;57.634;18.310;2023-07-09T14:39:15;1.93;;;1.57;;
12385;SDS011;6257;57.634;18.310;2023-07-09T14:41:42;2.60;;;1.50;;
12385;SDS011;6257;57.634;18.310;2023-07-09T14:44:18;4.10;;;1.87;;
12385;SDS011;6257;57.634;18.310;2023-07-09T14:46:49;2.03;;;1.20;;
12385;SDS011;6257;57.634;18.310;2023-07-09T14:49:19;1.93;;;1.30;;
12385;SDS011;6257;57.634;18.310;2023-07-09T14:51:47;2.33;;;1.40;;
12385;SDS011;6257;57.634;18.310;2023-07-09T14:54:19;1.53;;;1.30;;
12385;SDS011;6257;57.634;18.310;2023-07-09T14:56:47;3.17;;;1.50;;
12385;SDS011;6257;57.634;18.310;2023-07-09T14:59:16;2.70;;;1.37;;
12385;SDS011;6257;57.634;18.310;2023-07-09T15:01:44;2.60;;;1.23;;
12385;SDS011;6257;57.634;18.310;2023-07-09T15:04:30;1.20;;;1.10;;
12385;SDS011;6257;57.634;18.310;2023-07-09T15:06:58;1.80;;;1.30;;
12385;SDS011;6257;57.634;18.310;2023-07-09T15:09:26;2.20;;;1.17;;
12385;SDS011;6257;57.634;18.310;2023-07-09T15:11:55;2.70;;;1.00;;